sensor_id;sensor_type;location;lat;lon;timestamp;P1;durP1;ratioP1;P2;durP2;ratioP2
12593;SDS011;6362;50.208;9.182;2023-07-08T00:00:15;4.65;;;3.38;;
12593;SDS011;6362;50.208;9.182;2023-07-08T00:02:43;6.05;;;3.75;;
12593;SDS011;6362;50.208;9.182;2023-07-08T00:05:10;3.83;;;2.90;;
12593;SDS011;6362;50.208;9.182;2023-07-08T00:07:37;4.70;;;3.50;;
12593;SDS011;6362;50.208;9.182;2023-07-08T00:12:42;3.92;;;3.22;;
12593;SDS011;6362;50.208;9.182;2023-07-08T00:15:09;4.15;;;3.13;;
12593;SDS011;6362;50.208;9.182;2023-07-08T00:17:35;6.45;;;3.90;;
12593;SDS011;6362;50.208;9.182;2023-07-08T00:20:07;5.03;;;3.25;;
12593;SDS011;6362;50.208;9.182;2023-07-08T00:23:07;6.57;;;3.75;;
12593;SDS011;6362;50.208;9.182;2023-07-08T00:25:33;4.97;;;3.40;;
12593;SDS011;6362;50.208;9.182;2023-07-08T00:27:59;5.00;;;2.80;;
12593;SDS011;6362;50.208;9.182;2023-07-08T00:32:50;4.63;;;3.20;;
12593;SDS011;6362;50.208;9.182;2023-07-08T00:35:24;4.57;;;3.00;;
12593;SDS011;6362;50.208;9.182;2023-07-08T00:37:54;5.43;;;3.33;;
12593;SDS011;6362;50.208;9.182;2023-07-08T00:40:26;4.55;;;3.22;;
12593;SDS011;6362;50.208;9.182;2023-07-08T00:42:54;4.28;;;3.15;;
12593;SDS011;6362;50.208;9.182;2023-07-08T00:48:32;6.35;;;3.85;;
12593;SDS011;6362;50.208;9.182;2023-07-08T00:51:00;5.00;;;3.15;;
12593;SDS011;6362;50.208;9.182;2023-07-08T00:56:17;5.65;;;3.53;;
12593;SDS011;6362;50.208;9.182;2023-07-08T00:58:44;4.53;;;3.40;;
12593;SDS011;6362;50.208;9.182;2023-07-08T01:01:14;4.47;;;3.05;;
12593;SDS011;6362;50.208;9.182;2023-07-08T01:06:39;5.63;;;3.70;;
12593;SDS011;6362;50.208;9.182;2023-07-08T01:09:09;4.88;;;3.33;;
12593;SDS011;6362;50.208;9.182;2023-07-08T01:11:37;5.20;;;3.55;;
12593;SDS011;6362;50.208;9.182;2023-07-08T01:14:04;5.35;;;3.97;;
12593;SDS011;6362;50.208;9.182;2023-07-08T01:16:32;7.07;;;3.53;;
12593;SDS011;6362;50.208;9.182;2023-07-08T01:18:59;4.82;;;3.05;;
12593;SDS011;6362;50.208;9.182;2023-07-08T01:24:00;5.20;;;3.42;;
12593;SDS011;6362;50.208;9.182;2023-07-08T01:26:27;7.60;;;3.17;;
12593;SDS011;6362;50.208;9.182;2023-07-08T01:28:55;5.93;;;3.33;;
12593;SDS011;6362;50.208;9.182;2023-07-08T01:31:22;6.07;;;3.53;;
12593;SDS011;6362;50.208;9.182;2023-07-08T01:33:48;6.30;;;3.33;;
12593;SDS011;6362;50.208;9.182;2023-07-08T01:36:16;6.05;;;3.63;;
12593;SDS011;6362;50.208;9.182;2023-07-08T01:38:42;5.28;;;3.40;;
12593;SDS011;6362;50.208;9.182;2023-07-08T01:41:13;5.18;;;3.35;;
12593;SDS011;6362;50.208;9.182;2023-07-08T01:43:41;6.07;;;3.40;;
12593;SDS011;6362;50.208;9.182;2023-07-08T01:46:10;5.55;;;3.70;;
12593;SDS011;6362;50.208;9.182;2023-07-08T01:48:39;6.65;;;3.05;;
12593;SDS011;6362;50.208;9.182;2023-07-08T01:51:10;6.80;;;3.50;;
12593;SDS011;6362;50.208;9.182;2023-07-08T01:53:38;5.50;;;3.40;;
12593;SDS011;6362;50.208;9.182;2023-07-08T01:56:08;9.48;;;3.67;;
12593;SDS011;6362;50.208;9.182;2023-07-08T01:58:34;4.82;;;3.25;;
12593;SDS011;6362;50.208;9.182;2023-07-08T02:01:00;4.32;;;3.15;;
12593;SDS011;6362;50.208;9.182;2023-07-08T02:03:26;3.97;;;3.10;;
12593;SDS011;6362;50.208;9.182;2023-07-08T02:05:52;6.95;;;3.28;;
12593;SDS011;6362;50.208;9.182;2023-07-08T02:08:18;5.72;;;3.10;;
12593;SDS011;6362;50.208;9.182;2023-07-08T02:10:49;5.03;;;3.13;;
12593;SDS011;6362;50.208;9.182;2023-07-08T02:13:15;4.90;;;3.15;;
12593;SDS011;6362;50.208;9.182;2023-07-08T02:15:41;4.45;;;3.08;;
12593;SDS011;6362;50.208;9.182;2023-07-08T02:18:07;6.82;;;3.40;;
12593;SDS011;6362;50.208;9.182;2023-07-08T02:20:32;5.78;;;3.60;;
12593;SDS011;6362;50.208;9.182;2023-07-08T02:22:57;4.95;;;3.38;;
12593;SDS011;6362;50.208;9.182;2023-07-08T02:25:23;5.63;;;3.13;;
12593;SDS011;6362;50.208;9.182;2023-07-08T02:27:48;5.88;;;3.10;;
12593;SDS011;6362;50.208;9.182;2023-07-08T02:30:14;7.30;;;3.78;;
12593;SDS011;6362;50.208;9.182;2023-07-08T02:32:40;5.70;;;3.88;;
12593;SDS011;6362;50.208;9.182;2023-07-08T02:35:06;4.97;;;3.55;;
12593;SDS011;6362;50.208;9.182;2023-07-08T02:37:33;8.30;;;4.10;;
12593;SDS011;6362;50.208;9.182;2023-07-08T02:39:59;5.72;;;3.58;;
12593;SDS011;6362;50.208;9.182;2023-07-08T02:42:25;6.15;;;3.67;;
12593;SDS011;6362;50.208;9.182;2023-07-08T02:44:51;9.73;;;3.30;;
12593;SDS011;6362;50.208;9.182;2023-07-08T02:47:16;5.60;;;2.88;;
12593;SDS011;6362;50.208;9.182;2023-07-08T02:49:42;5.07;;;3.10;;
12593;SDS011;6362;50.208;9.182;2023-07-08T02:52:07;5.07;;;3.53;;
12593;SDS011;6362;50.208;9.182;2023-07-08T02:54:33;5.25;;;3.45;;
12593;SDS011;6362;50.208;9.182;2023-07-08T02:56:58;5.45;;;3.50;;
12593;SDS011;6362;50.208;9.182;2023-07-08T02:59:25;4.15;;;3.10;;
12593;SDS011;6362;50.208;9.182;2023-07-08T03:01:51;5.80;;;3.15;;
12593;SDS011;6362;50.208;9.182;2023-07-08T03:04:16;5.60;;;3.92;;
12593;SDS011;6362;50.208;9.182;2023-07-08T03:06:43;5.57;;;3.65;;
12593;SDS011;6362;50.208;9.182;2023-07-08T03:09:10;5.18;;;3.85;;
12593;SDS011;6362;50.208;9.182;2023-07-08T03:11:37;5.38;;;2.97;;
12593;SDS011;6362;50.208;9.182;2023-07-08T03:14:03;4.97;;;3.33;;
12593;SDS011;6362;50.208;9.182;2023-07-08T03:16:30;9.93;;;3.33;;
12593;SDS011;6362;50.208;9.182;2023-07-08T03:18:55;5.38;;;3.35;;
12593;SDS011;6362;50.208;9.182;2023-07-08T03:21:21;6.68;;;3.47;;
12593;SDS011;6362;50.208;9.182;2023-07-08T03:23:50;4.43;;;3.00;;
12593;SDS011;6362;50.208;9.182;2023-07-08T03:26:17;6.05;;;3.13;;
12593;SDS011;6362;50.208;9.182;2023-07-08T03:28:45;4.43;;;3.03;;
12593;SDS011;6362;50.208;9.182;2023-07-08T03:31:11;4.88;;;3.10;;
12593;SDS011;6362;50.208;9.182;2023-07-08T03:33:36;4.85;;;3.72;;
12593;SDS011;6362;50.208;9.182;2023-07-08T03:36:03;4.95;;;3.42;;
12593;SDS011;6362;50.208;9.182;2023-07-08T03:38:29;5.47;;;3.78;;
12593;SDS011;6362;50.208;9.182;2023-07-08T03:40:54;4.40;;;3.50;;
12593;SDS011;6362;50.208;9.182;2023-07-08T03:43:20;6.35;;;3.30;;
12593;SDS011;6362;50.208;9.182;2023-07-08T03:45:46;4.55;;;3.38;;
12593;SDS011;6362;50.208;9.182;2023-07-08T03:48:11;6.75;;;3.60;;
12593;SDS011;6362;50.208;9.182;2023-07-08T03:50:37;6.38;;;3.30;;
12593;SDS011;6362;50.208;9.182;2023-07-08T03:53:03;4.35;;;3.35;;
12593;SDS011;6362;50.208;9.182;2023-07-08T03:55:29;8.00;;;3.40;;
12593;SDS011;6362;50.208;9.182;2023-07-08T03:57:55;5.15;;;3.25;;
12593;SDS011;6362;50.208;9.182;2023-07-08T04:00:20;5.18;;;3.25;;
12593;SDS011;6362;50.208;9.182;2023-07-08T04:02:46;5.35;;;2.90;;
12593;SDS011;6362;50.208;9.182;2023-07-08T04:05:16;5.32;;;3.47;;
12593;SDS011;6362;50.208;9.182;2023-07-08T04:07:43;4.97;;;3.28;;
12593;SDS011;6362;50.208;9.182;2023-07-08T04:10:09;4.95;;;3.63;;
12593;SDS011;6362;50.208;9.182;2023-07-08T04:12:35;7.40;;;3.13;;
12593;SDS011;6362;50.208;9.182;2023-07-08T04:15:01;5.60;;;3.47;;
12593;SDS011;6362;50.208;9.182;2023-07-08T04:17:27;5.45;;;2.75;;
12593;SDS011;6362;50.208;9.182;2023-07-08T04:19:53;5.28;;;3.60;;
12593;SDS011;6362;50.208;9.182;2023-07-08T04:22:21;4.90;;;3.28;;
12593;SDS011;6362;50.208;9.182;2023-07-08T04:24:47;5.05;;;3.08;;
12593;SDS011;6362;50.208;9.182;2023-07-08T04:27:14;4.30;;;3.20;;
12593;SDS011;6362;50.208;9.182;2023-07-08T04:29:41;6.70;;;3.00;;
12593;SDS011;6362;50.208;9.182;2023-07-08T04:32:06;5.35;;;3.55;;
12593;SDS011;6362;50.208;9.182;2023-07-08T04:34:32;7.07;;;3.53;;
12593;SDS011;6362;50.208;9.182;2023-07-08T04:36:58;5.55;;;3.47;;
12593;SDS011;6362;50.208;9.182;2023-07-08T04:39:24;5.03;;;3.17;;
12593;SDS011;6362;50.208;9.182;2023-07-08T04:41:49;5.40;;;3.45;;
12593;SDS011;6362;50.208;9.182;2023-07-08T04:44:14;4.45;;;2.75;;
12593;SDS011;6362;50.208;9.182;2023-07-08T04:46:50;5.50;;;3.40;;
12593;SDS011;6362;50.208;9.182;2023-07-08T04:49:19;4.30;;;3.13;;
12593;SDS011;6362;50.208;9.182;2023-07-08T04:51:45;5.03;;;3.20;;
12593;SDS011;6362;50.208;9.182;2023-07-08T04:54:11;7.75;;;3.92;;
12593;SDS011;6362;50.208;9.182;2023-07-08T04:56:37;5.35;;;3.47;;
12593;SDS011;6362;50.208;9.182;2023-07-08T04:59:08;4.22;;;3.20;;
12593;SDS011;6362;50.208;9.182;2023-07-08T05:01:35;4.43;;;3.22;;
12593;SDS011;6362;50.208;9.182;2023-07-08T05:04:00;5.68;;;3.25;;
12593;SDS011;6362;50.208;9.182;2023-07-08T05:06:27;7.45;;;3.55;;
12593;SDS011;6362;50.208;9.182;2023-07-08T05:08:53;4.72;;;2.95;;
12593;SDS011;6362;50.208;9.182;2023-07-08T05:11:18;5.97;;;3.47;;
12593;SDS011;6362;50.208;9.182;2023-07-08T05:13:43;4.60;;;3.42;;
12593;SDS011;6362;50.208;9.182;2023-07-08T05:16:09;4.90;;;2.80;;
12593;SDS011;6362;50.208;9.182;2023-07-08T05:18:34;5.13;;;3.03;;
12593;SDS011;6362;50.208;9.182;2023-07-08T05:21:00;4.45;;;3.10;;
12593;SDS011;6362;50.208;9.182;2023-07-08T05:23:26;4.75;;;3.45;;
12593;SDS011;6362;50.208;9.182;2023-07-08T05:25:51;4.53;;;3.10;;
12593;SDS011;6362;50.208;9.182;2023-07-08T05:28:17;5.70;;;2.75;;
12593;SDS011;6362;50.208;9.182;2023-07-08T05:30:42;5.75;;;3.42;;
12593;SDS011;6362;50.208;9.182;2023-07-08T05:33:08;4.50;;;3.45;;
12593;SDS011;6362;50.208;9.182;2023-07-08T05:35:34;5.10;;;3.63;;
12593;SDS011;6362;50.208;9.182;2023-07-08T05:38:00;5.45;;;3.17;;
12593;SDS011;6362;50.208;9.182;2023-07-08T05:40:26;5.57;;;4.07;;
12593;SDS011;6362;50.208;9.182;2023-07-08T05:42:52;5.18;;;3.40;;
12593;SDS011;6362;50.208;9.182;2023-07-08T05:45:17;5.03;;;3.50;;
12593;SDS011;6362;50.208;9.182;2023-07-08T05:47:43;7.22;;;3.30;;
12593;SDS011;6362;50.208;9.182;2023-07-08T05:50:08;3.80;;;2.97;;
12593;SDS011;6362;50.208;9.182;2023-07-08T05:52:34;4.07;;;3.45;;
12593;SDS011;6362;50.208;9.182;2023-07-08T05:54:59;7.00;;;3.80;;
12593;SDS011;6362;50.208;9.182;2023-07-08T05:57:25;6.20;;;3.50;;
12593;SDS011;6362;50.208;9.182;2023-07-08T05:59:50;5.28;;;3.20;;
12593;SDS011;6362;50.208;9.182;2023-07-08T06:02:17;3.95;;;3.00;;
12593;SDS011;6362;50.208;9.182;2023-07-08T06:04:44;5.25;;;3.65;;
12593;SDS011;6362;50.208;9.182;2023-07-08T06:07:10;7.25;;;3.58;;
12593;SDS011;6362;50.208;9.182;2023-07-08T06:09:35;5.45;;;3.53;;
12593;SDS011;6362;50.208;9.182;2023-07-08T06:12:01;5.10;;;3.30;;
12593;SDS011;6362;50.208;9.182;2023-07-08T06:14:27;3.90;;;3.30;;
12593;SDS011;6362;50.208;9.182;2023-07-08T06:16:53;4.70;;;3.30;;
12593;SDS011;6362;50.208;9.182;2023-07-08T06:19:19;4.43;;;3.15;;
12593;SDS011;6362;50.208;9.182;2023-07-08T06:21:45;4.18;;;3.05;;
12593;SDS011;6362;50.208;9.182;2023-07-08T06:24:10;4.15;;;3.13;;
12593;SDS011;6362;50.208;9.182;2023-07-08T06:26:36;4.80;;;3.22;;
12593;SDS011;6362;50.208;9.182;2023-07-08T06:29:01;6.20;;;3.35;;
12593;SDS011;6362;50.208;9.182;2023-07-08T06:31:28;5.80;;;3.15;;
12593;SDS011;6362;50.208;9.182;2023-07-08T06:33:54;5.97;;;3.20;;
12593;SDS011;6362;50.208;9.182;2023-07-08T06:36:19;4.60;;;3.10;;
12593;SDS011;6362;50.208;9.182;2023-07-08T06:38:44;4.30;;;3.08;;
12593;SDS011;6362;50.208;9.182;2023-07-08T06:41:10;5.40;;;3.45;;
12593;SDS011;6362;50.208;9.182;2023-07-08T06:43:35;5.72;;;3.25;;
12593;SDS011;6362;50.208;9.182;2023-07-08T06:46:01;6.03;;;3.45;;
12593;SDS011;6362;50.208;9.182;2023-07-08T06:48:26;4.40;;;2.80;;
12593;SDS011;6362;50.208;9.182;2023-07-08T06:50:51;5.38;;;2.92;;
12593;SDS011;6362;50.208;9.182;2023-07-08T06:53:17;5.07;;;3.20;;
12593;SDS011;6362;50.208;9.182;2023-07-08T06:55:45;7.47;;;3.47;;
12593;SDS011;6362;50.208;9.182;2023-07-08T06:58:11;4.45;;;3.50;;
12593;SDS011;6362;50.208;9.182;2023-07-08T07:00:37;4.18;;;3.08;;
12593;SDS011;6362;50.208;9.182;2023-07-08T07:03:03;4.82;;;3.15;;
12593;SDS011;6362;50.208;9.182;2023-07-08T07:05:28;4.68;;;3.17;;
12593;SDS011;6362;50.208;9.182;2023-07-08T07:07:53;3.95;;;2.97;;
12593;SDS011;6362;50.208;9.182;2023-07-08T07:10:19;4.28;;;3.20;;
12593;SDS011;6362;50.208;9.182;2023-07-08T07:12:45;5.88;;;3.50;;
12593;SDS011;6362;50.208;9.182;2023-07-08T07:15:10;7.38;;;3.28;;
12593;SDS011;6362;50.208;9.182;2023-07-08T07:17:36;5.75;;;3.17;;
12593;SDS011;6362;50.208;9.182;2023-07-08T07:20:02;5.43;;;3.75;;
12593;SDS011;6362;50.208;9.182;2023-07-08T07:22:28;4.93;;;3.53;;
12593;SDS011;6362;50.208;9.182;2023-07-08T07:24:54;4.30;;;3.20;;
12593;SDS011;6362;50.208;9.182;2023-07-08T07:27:20;5.07;;;3.03;;
12593;SDS011;6362;50.208;9.182;2023-07-08T07:29:46;5.20;;;3.28;;
12593;SDS011;6362;50.208;9.182;2023-07-08T07:32:13;5.10;;;3.08;;
12593;SDS011;6362;50.208;9.182;2023-07-08T07:34:40;5.10;;;3.03;;
12593;SDS011;6362;50.208;9.182;2023-07-08T07:37:06;5.13;;;3.40;;
12593;SDS011;6362;50.208;9.182;2023-07-08T07:39:35;4.15;;;3.00;;
12593;SDS011;6362;50.208;9.182;2023-07-08T07:42:00;5.53;;;3.00;;
12593;SDS011;6362;50.208;9.182;2023-07-08T07:44:26;9.30;;;3.53;;
12593;SDS011;6362;50.208;9.182;2023-07-08T07:46:52;5.25;;;3.28;;
12593;SDS011;6362;50.208;9.182;2023-07-08T07:49:18;4.40;;;3.00;;
12593;SDS011;6362;50.208;9.182;2023-07-08T07:51:44;4.07;;;2.95;;
12593;SDS011;6362;50.208;9.182;2023-07-08T07:54:09;4.57;;;3.00;;
12593;SDS011;6362;50.208;9.182;2023-07-08T07:56:35;5.03;;;3.20;;
12593;SDS011;6362;50.208;9.182;2023-07-08T07:59:00;5.05;;;3.47;;
12593;SDS011;6362;50.208;9.182;2023-07-08T08:01:25;4.40;;;3.33;;
12593;SDS011;6362;50.208;9.182;2023-07-08T08:03:51;3.80;;;3.15;;
12593;SDS011;6362;50.208;9.182;2023-07-08T08:06:17;4.72;;;3.13;;
12593;SDS011;6362;50.208;9.182;2023-07-08T08:08:43;5.03;;;3.28;;
12593;SDS011;6362;50.208;9.182;2023-07-08T08:11:11;5.97;;;3.00;;
12593;SDS011;6362;50.208;9.182;2023-07-08T08:13:37;4.63;;;3.67;;
12593;SDS011;6362;50.208;9.182;2023-07-08T08:16:02;5.03;;;3.72;;
12593;SDS011;6362;50.208;9.182;2023-07-08T08:18:30;7.25;;;3.45;;
12593;SDS011;6362;50.208;9.182;2023-07-08T08:20:55;6.50;;;3.78;;
12593;SDS011;6362;50.208;9.182;2023-07-08T08:23:21;5.60;;;3.40;;
12593;SDS011;6362;50.208;9.182;2023-07-08T08:25:46;4.78;;;3.45;;
12593;SDS011;6362;50.208;9.182;2023-07-08T08:28:12;3.92;;;3.13;;
12593;SDS011;6362;50.208;9.182;2023-07-08T08:30:37;5.13;;;3.28;;
12593;SDS011;6362;50.208;9.182;2023-07-08T08:33:03;4.30;;;3.42;;
12593;SDS011;6362;50.208;9.182;2023-07-08T08:35:28;6.00;;;4.22;;
12593;SDS011;6362;50.208;9.182;2023-07-08T08:37:54;4.55;;;3.08;;
12593;SDS011;6362;50.208;9.182;2023-07-08T08:40:19;4.18;;;3.15;;
12593;SDS011;6362;50.208;9.182;2023-07-08T08:42:46;4.05;;;3.17;;
12593;SDS011;6362;50.208;9.182;2023-07-08T08:45:19;4.20;;;3.13;;
12593;SDS011;6362;50.208;9.182;2023-07-08T08:47:51;4.45;;;3.30;;
12593;SDS011;6362;50.208;9.182;2023-07-08T08:50:36;4.85;;;3.75;;
12593;SDS011;6362;50.208;9.182;2023-07-08T08:53:10;4.80;;;3.22;;
12593;SDS011;6362;50.208;9.182;2023-07-08T08:55:38;4.22;;;3.25;;
12593;SDS011;6362;50.208;9.182;2023-07-08T09:00:53;5.05;;;3.40;;
12593;SDS011;6362;50.208;9.182;2023-07-08T09:06:28;4.78;;;3.28;;
12593;SDS011;6362;50.208;9.182;2023-07-08T09:08:57;5.25;;;3.85;;
12593;SDS011;6362;50.208;9.182;2023-07-08T09:14:41;7.57;;;3.95;;
12593;SDS011;6362;50.208;9.182;2023-07-08T09:19:35;5.82;;;4.00;;
12593;SDS011;6362;50.208;9.182;2023-07-08T09:22:21;6.90;;;3.75;;
12593;SDS011;6362;50.208;9.182;2023-07-08T09:25:10;6.65;;;3.47;;
12593;SDS011;6362;50.208;9.182;2023-07-08T09:27:48;6.78;;;3.70;;
12593;SDS011;6362;50.208;9.182;2023-07-08T09:30:14;5.43;;;4.20;;
12593;SDS011;6362;50.208;9.182;2023-07-08T09:32:42;6.20;;;4.07;;
12593;SDS011;6362;50.208;9.182;2023-07-08T09:35:08;6.35;;;4.13;;
12593;SDS011;6362;50.208;9.182;2023-07-08T09:37:41;5.45;;;4.22;;
12593;SDS011;6362;50.208;9.182;2023-07-08T09:40:14;6.30;;;4.35;;
12593;SDS011;6362;50.208;9.182;2023-07-08T09:45:15;4.97;;;3.60;;
12593;SDS011;6362;50.208;9.182;2023-07-08T09:47:44;5.75;;;4.53;;
12593;SDS011;6362;50.208;9.182;2023-07-08T09:50:21;6.72;;;4.07;;
12593;SDS011;6362;50.208;9.182;2023-07-08T09:52:50;7.15;;;4.28;;
12593;SDS011;6362;50.208;9.182;2023-07-08T09:55:17;6.05;;;4.32;;
12593;SDS011;6362;50.208;9.182;2023-07-08T09:57:43;6.70;;;4.47;;
12593;SDS011;6362;50.208;9.182;2023-07-08T10:00:12;6.95;;;4.18;;
12593;SDS011;6362;50.208;9.182;2023-07-08T10:02:42;6.05;;;3.95;;
12593;SDS011;6362;50.208;9.182;2023-07-08T10:05:16;4.85;;;3.70;;
12593;SDS011;6362;50.208;9.182;2023-07-08T10:07:48;6.20;;;4.20;;
12593;SDS011;6362;50.208;9.182;2023-07-08T10:10:19;6.50;;;4.70;;
12593;SDS011;6362;50.208;9.182;2023-07-08T10:12:58;6.97;;;4.55;;
12593;SDS011;6362;50.208;9.182;2023-07-08T10:15:28;6.22;;;4.78;;
12593;SDS011;6362;50.208;9.182;2023-07-08T10:18:03;7.80;;;4.43;;
12593;SDS011;6362;50.208;9.182;2023-07-08T10:23:26;6.95;;;4.38;;
12593;SDS011;6362;50.208;9.182;2023-07-08T10:26:04;6.22;;;4.30;;
12593;SDS011;6362;50.208;9.182;2023-07-08T10:34:27;6.82;;;4.25;;
12593;SDS011;6362;50.208;9.182;2023-07-08T10:37:25;5.40;;;4.00;;
12593;SDS011;6362;50.208;9.182;2023-07-08T10:40:06;4.95;;;4.38;;
12593;SDS011;6362;50.208;9.182;2023-07-08T10:43:09;5.85;;;4.15;;
12593;SDS011;6362;50.208;9.182;2023-07-08T10:45:45;5.65;;;4.45;;
12593;SDS011;6362;50.208;9.182;2023-07-08T11:03:16;5.38;;;4.15;;
12593;SDS011;6362;50.208;9.182;2023-07-08T11:05:50;6.40;;;3.92;;
12593;SDS011;6362;50.208;9.182;2023-07-08T11:08:27;5.25;;;4.18;;
12593;SDS011;6362;50.208;9.182;2023-07-08T11:11:05;6.05;;;3.72;;
12593;SDS011;6362;50.208;9.182;2023-07-08T11:13:35;4.88;;;3.85;;
12593;SDS011;6362;50.208;9.182;2023-07-08T11:16:13;5.32;;;3.90;;
12593;SDS011;6362;50.208;9.182;2023-07-08T11:18:48;6.10;;;4.32;;
12593;SDS011;6362;50.208;9.182;2023-07-08T11:21:35;4.68;;;3.70;;
12593;SDS011;6362;50.208;9.182;2023-07-08T11:26:38;6.28;;;4.40;;
12593;SDS011;6362;50.208;9.182;2023-07-08T11:29:19;5.40;;;4.13;;
12593;SDS011;6362;50.208;9.182;2023-07-08T11:31:49;4.93;;;3.80;;
12593;SDS011;6362;50.208;9.182;2023-07-08T11:34:17;5.70;;;4.20;;
12593;SDS011;6362;50.208;9.182;2023-07-08T11:36:43;6.45;;;4.60;;
12593;SDS011;6362;50.208;9.182;2023-07-08T11:39:32;4.72;;;4.00;;
12593;SDS011;6362;50.208;9.182;2023-07-08T11:42:04;7.18;;;4.70;;
12593;SDS011;6362;50.208;9.182;2023-07-08T11:44:42;6.80;;;4.00;;
12593;SDS011;6362;50.208;9.182;2023-07-08T11:47:41;7.43;;;4.63;;
12593;SDS011;6362;50.208;9.182;2023-07-08T11:50:20;5.55;;;4.18;;
12593;SDS011;6362;50.208;9.182;2023-07-08T11:58:50;8.52;;;4.80;;
12593;SDS011;6362;50.208;9.182;2023-07-08T12:03:47;6.88;;;4.95;;
12593;SDS011;6362;50.208;9.182;2023-07-08T12:08:52;4.43;;;3.72;;
12593;SDS011;6362;50.208;9.182;2023-07-08T12:11:31;5.37;;;4.00;;
12593;SDS011;6362;50.208;9.182;2023-07-08T12:13:59;8.57;;;4.18;;
12593;SDS011;6362;50.208;9.182;2023-07-08T12:16:26;6.28;;;4.60;;
12593;SDS011;6362;50.208;9.182;2023-07-08T12:18:54;6.72;;;4.25;;
12593;SDS011;6362;50.208;9.182;2023-07-08T12:21:23;5.88;;;4.32;;
12593;SDS011;6362;50.208;9.182;2023-07-08T12:23:51;5.55;;;4.25;;
12593;SDS011;6362;50.208;9.182;2023-07-08T12:26:17;7.20;;;4.38;;
12593;SDS011;6362;50.208;9.182;2023-07-08T12:28:42;5.55;;;3.78;;
12593;SDS011;6362;50.208;9.182;2023-07-08T12:31:15;5.20;;;3.92;;
12593;SDS011;6362;50.208;9.182;2023-07-08T12:33:43;6.10;;;4.20;;
12593;SDS011;6362;50.208;9.182;2023-07-08T12:36:10;5.57;;;4.10;;
12593;SDS011;6362;50.208;9.182;2023-07-08T12:38:40;5.05;;;4.10;;
12593;SDS011;6362;50.208;9.182;2023-07-08T12:41:15;5.53;;;3.58;;
12593;SDS011;6362;50.208;9.182;2023-07-08T12:43:43;5.40;;;4.22;;
12593;SDS011;6362;50.208;9.182;2023-07-08T12:46:10;5.95;;;4.40;;
12593;SDS011;6362;50.208;9.182;2023-07-08T12:48:37;5.20;;;4.18;;
12593;SDS011;6362;50.208;9.182;2023-07-08T12:51:04;5.00;;;4.43;;
12593;SDS011;6362;50.208;9.182;2023-07-08T12:53:31;5.35;;;4.10;;
12593;SDS011;6362;50.208;9.182;2023-07-08T12:55:59;6.72;;;4.90;;
12593;SDS011;6362;50.208;9.182;2023-07-08T12:58:27;6.32;;;4.75;;
12593;SDS011;6362;50.208;9.182;2023-07-08T13:00:55;6.80;;;4.55;;
12593;SDS011;6362;50.208;9.182;2023-07-08T13:03:24;5.80;;;4.60;;
12593;SDS011;6362;50.208;9.182;2023-07-08T13:05:55;5.80;;;4.20;;
12593;SDS011;6362;50.208;9.182;2023-07-08T13:08:25;6.07;;;4.25;;
12593;SDS011;6362;50.208;9.182;2023-07-08T13:10:56;5.45;;;4.13;;
12593;SDS011;6362;50.208;9.182;2023-07-08T13:13:24;4.82;;;4.20;;
12593;SDS011;6362;50.208;9.182;2023-07-08T13:15:53;6.90;;;3.70;;
12593;SDS011;6362;50.208;9.182;2023-07-08T13:18:41;5.82;;;4.30;;
12593;SDS011;6362;50.208;9.182;2023-07-08T13:21:07;6.30;;;4.82;;
12593;SDS011;6362;50.208;9.182;2023-07-08T13:23:37;5.63;;;4.32;;
12593;SDS011;6362;50.208;9.182;2023-07-08T13:26:17;8.23;;;4.43;;
12593;SDS011;6362;50.208;9.182;2023-07-08T13:28:45;4.43;;;3.80;;
12593;SDS011;6362;50.208;9.182;2023-07-08T13:31:55;5.80;;;4.18;;
12593;SDS011;6362;50.208;9.182;2023-07-08T13:34:06;6.95;;;4.20;;
12593;SDS011;6362;50.208;9.182;2023-07-08T13:36:34;5.93;;;4.50;;
12593;SDS011;6362;50.208;9.182;2023-07-08T13:39:06;5.10;;;4.35;;
12593;SDS011;6362;50.208;9.182;2023-07-08T13:41:43;7.43;;;4.43;;
12593;SDS011;6362;50.208;9.182;2023-07-08T13:44:10;7.30;;;4.40;;
12593;SDS011;6362;50.208;9.182;2023-07-08T13:46:37;5.68;;;4.40;;
12593;SDS011;6362;50.208;9.182;2023-07-08T13:49:47;9.40;;;4.28;;
12593;SDS011;6362;50.208;9.182;2023-07-08T13:52:15;8.18;;;4.72;;
12593;SDS011;6362;50.208;9.182;2023-07-08T13:54:49;6.25;;;4.30;;
12593;SDS011;6362;50.208;9.182;2023-07-08T13:57:18;5.13;;;4.00;;
12593;SDS011;6362;50.208;9.182;2023-07-08T13:59:46;8.35;;;4.60;;
12593;SDS011;6362;50.208;9.182;2023-07-08T14:02:21;7.05;;;4.38;;
12593;SDS011;6362;50.208;9.182;2023-07-08T14:04:53;6.00;;;4.10;;
12593;SDS011;6362;50.208;9.182;2023-07-08T14:07:24;6.10;;;4.30;;
12593;SDS011;6362;50.208;9.182;2023-07-08T14:09:52;5.20;;;4.18;;
12593;SDS011;6362;50.208;9.182;2023-07-08T14:12:17;5.15;;;4.03;;
12593;SDS011;6362;50.208;9.182;2023-07-08T14:14:43;6.45;;;4.53;;
12593;SDS011;6362;50.208;9.182;2023-07-08T14:17:13;6.07;;;4.43;;
12593;SDS011;6362;50.208;9.182;2023-07-08T14:19:44;6.78;;;4.78;;
12593;SDS011;6362;50.208;9.182;2023-07-08T14:24:45;6.43;;;4.10;;
12593;SDS011;6362;50.208;9.182;2023-07-08T14:27:11;8.18;;;4.47;;
12593;SDS011;6362;50.208;9.182;2023-07-08T14:29:39;7.38;;;4.32;;
12593;SDS011;6362;50.208;9.182;2023-07-08T14:32:07;6.30;;;3.80;;
12593;SDS011;6362;50.208;9.182;2023-07-08T14:34:38;9.53;;;5.07;;
12593;SDS011;6362;50.208;9.182;2023-07-08T14:37:07;5.88;;;4.32;;
12593;SDS011;6362;50.208;9.182;2023-07-08T14:39:38;7.88;;;4.45;;
12593;SDS011;6362;50.208;9.182;2023-07-08T14:42:04;5.97;;;4.22;;
12593;SDS011;6362;50.208;9.182;2023-07-08T14:44:31;8.95;;;3.92;;
12593;SDS011;6362;50.208;9.182;2023-07-08T14:47:00;7.50;;;4.10;;
12593;SDS011;6362;50.208;9.182;2023-07-08T14:49:26;6.95;;;4.82;;
12593;SDS011;6362;50.208;9.182;2023-07-08T14:51:52;5.82;;;4.38;;
12593;SDS011;6362;50.208;9.182;2023-07-08T14:54:18;8.18;;;4.40;;
12593;SDS011;6362;50.208;9.182;2023-07-08T14:56:44;5.00;;;4.20;;
12593;SDS011;6362;50.208;9.182;2023-07-08T14:59:13;5.78;;;4.03;;
12593;SDS011;6362;50.208;9.182;2023-07-08T15:01:41;4.90;;;3.92;;
12593;SDS011;6362;50.208;9.182;2023-07-08T15:04:10;8.07;;;4.28;;
12593;SDS011;6362;50.208;9.182;2023-07-08T15:06:37;6.32;;;4.47;;
12593;SDS011;6362;50.208;9.182;2023-07-08T15:09:02;7.30;;;4.43;;
12593;SDS011;6362;50.208;9.182;2023-07-08T15:11:28;5.07;;;3.90;;
12593;SDS011;6362;50.208;9.182;2023-07-08T15:13:53;6.95;;;4.60;;
12593;SDS011;6362;50.208;9.182;2023-07-08T15:16:19;6.55;;;3.95;;
12593;SDS011;6362;50.208;9.182;2023-07-08T15:18:45;6.03;;;4.05;;
12593;SDS011;6362;50.208;9.182;2023-07-08T15:21:14;6.22;;;4.43;;
12593;SDS011;6362;50.208;9.182;2023-07-08T15:23:40;6.47;;;4.55;;
12593;SDS011;6362;50.208;9.182;2023-07-08T15:26:15;5.70;;;3.88;;
12593;SDS011;6362;50.208;9.182;2023-07-08T15:28:48;7.53;;;4.07;;
12593;SDS011;6362;50.208;9.182;2023-07-08T15:31:17;11.90;;;4.82;;
12593;SDS011;6362;50.208;9.182;2023-07-08T15:33:49;7.28;;;4.45;;
12593;SDS011;6362;50.208;9.182;2023-07-08T15:36:14;7.50;;;5.07;;
12593;SDS011;6362;50.208;9.182;2023-07-08T15:38:40;7.72;;;4.93;;
12593;SDS011;6362;50.208;9.182;2023-07-08T15:41:09;7.20;;;4.50;;
12593;SDS011;6362;50.208;9.182;2023-07-08T15:43:41;8.27;;;4.45;;
12593;SDS011;6362;50.208;9.182;2023-07-08T15:46:06;5.60;;;4.57;;
12593;SDS011;6362;50.208;9.182;2023-07-08T15:48:33;9.15;;;4.60;;
12593;SDS011;6362;50.208;9.182;2023-07-08T15:50:58;6.53;;;4.10;;
12593;SDS011;6362;50.208;9.182;2023-07-08T15:53:24;9.35;;;4.90;;
12593;SDS011;6362;50.208;9.182;2023-07-08T15:55:49;8.68;;;4.43;;
12593;SDS011;6362;50.208;9.182;2023-07-08T15:58:22;4.97;;;3.83;;
12593;SDS011;6362;50.208;9.182;2023-07-08T16:00:48;5.60;;;4.22;;
12593;SDS011;6362;50.208;9.182;2023-07-08T16:03:18;6.03;;;4.28;;
12593;SDS011;6362;50.208;9.182;2023-07-08T16:05:45;6.10;;;4.78;;
12593;SDS011;6362;50.208;9.182;2023-07-08T16:08:10;4.90;;;4.30;;
12593;SDS011;6362;50.208;9.182;2023-07-08T16:10:36;6.60;;;5.30;;
12593;SDS011;6362;50.208;9.182;2023-07-08T16:13:03;5.78;;;4.70;;
12593;SDS011;6362;50.208;9.182;2023-07-08T16:15:33;8.60;;;4.75;;
12593;SDS011;6362;50.208;9.182;2023-07-08T16:18:03;4.25;;;3.58;;